Terminal Aerodrome Forecast
Issued by NWS Jackson, MS

Home | Current Version | Previous Version | Text Only | Print | Product List | Glossary On
Versions: 1 2 3 4 5 6 7 8 9 10 11 12 13
000
FTUS44 KJAN 181700
TAFGWO
TAF
KGWO 181720Z 1818/1918 08005KT P6SM OVC040
     FM182300 04004KT P6SM BKN050
     FM190400 05005KT P6SM BKN100
     FM190700 05007KT P6SM OVC025
     FM191600 05008KT P6SM -RA OVC015=

USA.gov is the U.S. government's official web portal to all federal, state and local government web resources and services.